sensor_id;sensor_type;location;lat;lon;timestamp;temperature;humidity
7214;DHT22;3648;50.614;13.830;2022-11-03T00:00:31;5.80;1.00
7214;DHT22;3648;50.614;13.830;2022-11-03T00:02:58;5.80;1.00
7214;DHT22;3648;50.614;13.830;2022-11-03T00:05:25;5.80;1.00
7214;DHT22;3648;50.614;13.830;2022-11-03T00:08:11;5.80;1.00
7214;DHT22;3648;50.614;13.830;2022-11-03T00:10:38;5.70;1.00
7214;DHT22;3648;50.614;13.830;2022-11-03T00:13:05;5.70;1.00
7214;DHT22;3648;50.614;13.830;2022-11-03T00:15:32;5.70;1.00
7214;DHT22;3648;50.614;13.830;2022-11-03T00:17:59;5.60;1.00
7214;DHT22;3648;50.614;13.830;2022-11-03T00:20:25;5.50;1.00
7214;DHT22;3648;50.614;13.830;2022-11-03T00:22:52;5.50;1.00
7214;DHT22;3648;50.614;13.830;2022-11-03T00:25:21;5.50;1.00
7214;DHT22;3648;50.614;13.830;2022-11-03T00:27:53;5.50;1.00
7214;DHT22;3648;50.614;13.830;2022-11-03T00:30:20;5.50;1.00
7214;DHT22;3648;50.614;13.830;2022-11-03T00:32:47;5.50;1.00
7214;DHT22;3648;50.614;13.830;2022-11-03T00:35:14;5.50;1.00
7214;DHT22;3648;50.614;13.830;2022-11-03T00:37:42;5.50;1.00
7214;DHT22;3648;50.614;13.830;2022-11-03T00:40:09;5.50;1.00
7214;DHT22;3648;50.614;13.830;2022-11-03T00:42:38;5.50;1.00
7214;DHT22;3648;50.614;13.830;2022-11-03T00:45:06;5.60;1.00
7214;DHT22;3648;50.614;13.830;2022-11-03T00:47:33;5.60;1.00
7214;DHT22;3648;50.614;13.830;2022-11-03T00:50:20;5.60;1.00
7214;DHT22;3648;50.614;13.830;2022-11-03T00:52:47;5.60;1.00
7214;DHT22;3648;50.614;13.830;2022-11-03T00:55:14;5.60;1.00
7214;DHT22;3648;50.614;13.830;2022-11-03T00:57:43;5.70;1.00
7214;DHT22;3648;50.614;13.830;2022-11-03T01:00:11;5.60;1.00
7214;DHT22;3648;50.614;13.830;2022-11-03T01:02:38;5.70;1.00
7214;DHT22;3648;50.614;13.830;2022-11-03T01:05:05;5.60;1.00
7214;DHT22;3648;50.614;13.830;2022-11-03T01:07:50;5.60;1.00
7214;DHT22;3648;50.614;13.830;2022-11-03T01:10:18;5.50;1.00
7214;DHT22;3648;50.614;13.830;2022-11-03T01:12:46;5.50;1.00
7214;DHT22;3648;50.614;13.830;2022-11-03T01:15:13;5.50;1.00
7214;DHT22;3648;50.614;13.830;2022-11-03T01:17:40;5.50;1.00
7214;DHT22;3648;50.614;13.830;2022-11-03T01:20:08;5.30;1.00
7214;DHT22;3648;50.614;13.830;2022-11-03T01:22:35;5.30;1.00
7214;DHT22;3648;50.614;13.830;2022-11-03T01:25:02;5.20;1.00
7214;DHT22;3648;50.614;13.830;2022-11-03T01:27:29;5.20;1.00
7214;DHT22;3648;50.614;13.830;2022-11-03T01:29:57;5.20;1.00
7214;DHT22;3648;50.614;13.830;2022-11-03T01:32:24;5.30;1.00
7214;DHT22;3648;50.614;13.830;2022-11-03T01:34:51;5.20;1.00
7214;DHT22;3648;50.614;13.830;2022-11-03T01:37:18;5.20;1.00
7214;DHT22;3648;50.614;13.830;2022-11-03T01:39:45;5.20;1.00
7214;DHT22;3648;50.614;13.830;2022-11-03T01:42:12;5.10;1.00
7214;DHT22;3648;50.614;13.830;2022-11-03T01:44:42;5.10;1.00
7214;DHT22;3648;50.614;13.830;2022-11-03T01:47:20;5.10;1.00
7214;DHT22;3648;50.614;13.830;2022-11-03T01:49:52;5.10;1.00
7214;DHT22;3648;50.614;13.830;2022-11-03T01:52:23;5.10;1.00
7214;DHT22;3648;50.614;13.830;2022-11-03T01:54:56;5.00;1.00
7214;DHT22;3648;50.614;13.830;2022-11-03T01:57:27;5.00;1.00
7214;DHT22;3648;50.614;13.830;2022-11-03T01:59:57;4.90;1.00
7214;DHT22;3648;50.614;13.830;2022-11-03T02:02:26;4.90;1.00
7214;DHT22;3648;50.614;13.830;2022-11-03T02:04:54;5.00;1.00
7214;DHT22;3648;50.614;13.830;2022-11-03T02:07:27;5.00;1.00
7214;DHT22;3648;50.614;13.830;2022-11-03T02:09:56;4.90;1.00
7214;DHT22;3648;50.614;13.830;2022-11-03T02:12:23;4.90;1.00
7214;DHT22;3648;50.614;13.830;2022-11-03T02:14:54;4.90;1.00
7214;DHT22;3648;50.614;13.830;2022-11-03T02:17:23;5.00;1.00
7214;DHT22;3648;50.614;13.830;2022-11-03T02:19:55;5.00;1.00
7214;DHT22;3648;50.614;13.830;2022-11-03T02:22:51;5.00;1.00
7214;DHT22;3648;50.614;13.830;2022-11-03T02:25:42;4.90;1.00
7214;DHT22;3648;50.614;13.830;2022-11-03T02:28:11;4.80;1.00
7214;DHT22;3648;50.614;13.830;2022-11-03T02:30:42;4.60;1.00
7214;DHT22;3648;50.614;13.830;2022-11-03T02:33:31;4.60;1.00
7214;DHT22;3648;50.614;13.830;2022-11-03T02:36:05;4.60;1.00
7214;DHT22;3648;50.614;13.830;2022-11-03T02:38:39;4.60;1.00
7214;DHT22;3648;50.614;13.830;2022-11-03T02:41:11;4.50;1.00
7214;DHT22;3648;50.614;13.830;2022-11-03T02:43:39;4.40;1.00
7214;DHT22;3648;50.614;13.830;2022-11-03T02:46:08;4.40;1.00
7214;DHT22;3648;50.614;13.830;2022-11-03T02:48:36;4.40;1.00
7214;DHT22;3648;50.614;13.830;2022-11-03T02:51:03;4.40;1.00
7214;DHT22;3648;50.614;13.830;2022-11-03T02:53:35;4.40;1.00
7214;DHT22;3648;50.614;13.830;2022-11-03T02:56:07;4.40;1.00
7214;DHT22;3648;50.614;13.830;2022-11-03T02:58:42;4.40;1.00
7214;DHT22;3648;50.614;13.830;2022-11-03T03:01:17;4.40;1.00
7214;DHT22;3648;50.614;13.830;2022-11-03T03:03:47;4.30;1.00
7214;DHT22;3648;50.614;13.830;2022-11-03T03:06:19;4.30;1.00
7214;DHT22;3648;50.614;13.830;2022-11-03T03:08:51;4.20;1.00
7214;DHT22;3648;50.614;13.830;2022-11-03T03:11:19;4.20;1.00
7214;DHT22;3648;50.614;13.830;2022-11-03T03:14:04;4.20;1.00
7214;DHT22;3648;50.614;13.830;2022-11-03T03:16:34;4.30;1.00
7214;DHT22;3648;50.614;13.830;2022-11-03T03:19:08;4.30;1.00
7214;DHT22;3648;50.614;13.830;2022-11-03T03:21:42;4.40;1.00
7214;DHT22;3648;50.614;13.830;2022-11-03T03:24:14;4.40;1.00
7214;DHT22;3648;50.614;13.830;2022-11-03T03:26:46;4.20;1.00
7214;DHT22;3648;50.614;13.830;2022-11-03T03:29:19;4.30;1.00
7214;DHT22;3648;50.614;13.830;2022-11-03T03:31:52;4.30;1.00
7214;DHT22;3648;50.614;13.830;2022-11-03T03:34:22;4.40;1.00
7214;DHT22;3648;50.614;13.830;2022-11-03T03:36:52;4.30;1.00
7214;DHT22;3648;50.614;13.830;2022-11-03T03:39:22;4.40;1.00
7214;DHT22;3648;50.614;13.830;2022-11-03T03:41:52;4.50;1.00
7214;DHT22;3648;50.614;13.830;2022-11-03T03:44:21;4.50;1.00
7214;DHT22;3648;50.614;13.830;2022-11-03T03:46:54;4.50;1.00
7214;DHT22;3648;50.614;13.830;2022-11-03T03:49:21;4.50;1.00
7214;DHT22;3648;50.614;13.830;2022-11-03T03:51:49;4.50;1.00
7214;DHT22;3648;50.614;13.830;2022-11-03T03:54:17;4.50;1.00
7214;DHT22;3648;50.614;13.830;2022-11-03T03:56:47;4.50;1.00
7214;DHT22;3648;50.614;13.830;2022-11-03T03:59:16;4.40;1.00
7214;DHT22;3648;50.614;13.830;2022-11-03T04:01:44;4.40;1.00
7214;DHT22;3648;50.614;13.830;2022-11-03T04:04:11;4.50;1.00
7214;DHT22;3648;50.614;13.830;2022-11-03T04:06:38;4.50;1.00
7214;DHT22;3648;50.614;13.830;2022-11-03T04:09:05;4.40;1.00
7214;DHT22;3648;50.614;13.830;2022-11-03T04:11:32;4.50;1.00
7214;DHT22;3648;50.614;13.830;2022-11-03T04:14:17;4.40;1.00
7214;DHT22;3648;50.614;13.830;2022-11-03T04:17:02;4.50;1.00
7214;DHT22;3648;50.614;13.830;2022-11-03T04:19:47;4.50;1.00
7214;DHT22;3648;50.614;13.830;2022-11-03T04:22:32;4.50;1.00
7214;DHT22;3648;50.614;13.830;2022-11-03T04:24:59;4.50;1.00
7214;DHT22;3648;50.614;13.830;2022-11-03T04:27:29;4.50;1.00
7214;DHT22;3648;50.614;13.830;2022-11-03T04:29:59;4.40;1.00
7214;DHT22;3648;50.614;13.830;2022-11-03T04:32:29;4.40;1.00
7214;DHT22;3648;50.614;13.830;2022-11-03T04:34:57;4.40;1.00
7214;DHT22;3648;50.614;13.830;2022-11-03T04:37:26;4.50;1.00
7214;DHT22;3648;50.614;13.830;2022-11-03T04:39:56;4.40;1.00
7214;DHT22;3648;50.614;13.830;2022-11-03T04:42:24;4.40;1.00
7214;DHT22;3648;50.614;13.830;2022-11-03T04:44:51;4.40;1.00
7214;DHT22;3648;50.614;13.830;2022-11-03T04:47:18;4.40;1.00
7214;DHT22;3648;50.614;13.830;2022-11-03T04:49:47;4.30;1.00
7214;DHT22;3648;50.614;13.830;2022-11-03T04:52:16;4.30;1.00
7214;DHT22;3648;50.614;13.830;2022-11-03T04:54:44;4.20;1.00
7214;DHT22;3648;50.614;13.830;2022-11-03T04:57:14;4.20;1.00
7214;DHT22;3648;50.614;13.830;2022-11-03T04:59:44;4.20;1.00
7214;DHT22;3648;50.614;13.830;2022-11-03T05:02:13;4.10;1.00
7214;DHT22;3648;50.614;13.830;2022-11-03T05:04:42;4.10;1.00
7214;DHT22;3648;50.614;13.830;2022-11-03T05:07:21;4.20;1.00
7214;DHT22;3648;50.614;13.830;2022-11-03T05:09:49;4.10;1.00
7214;DHT22;3648;50.614;13.830;2022-11-03T05:12:17;4.00;1.00
7214;DHT22;3648;50.614;13.830;2022-11-03T05:14:44;4.00;1.00
7214;DHT22;3648;50.614;13.830;2022-11-03T05:17:20;4.00;1.00
7214;DHT22;3648;50.614;13.830;2022-11-03T05:19:49;4.00;1.00
7214;DHT22;3648;50.614;13.830;2022-11-03T05:22:19;3.90;1.00
7214;DHT22;3648;50.614;13.830;2022-11-03T05:24:49;3.90;1.00
7214;DHT22;3648;50.614;13.830;2022-11-03T05:27:19;3.90;1.00
7214;DHT22;3648;50.614;13.830;2022-11-03T05:29:48;3.90;1.00
7214;DHT22;3648;50.614;13.830;2022-11-03T05:32:18;3.80;1.00
7214;DHT22;3648;50.614;13.830;2022-11-03T05:34:49;3.80;1.00
7214;DHT22;3648;50.614;13.830;2022-11-03T05:37:26;3.80;1.00
7214;DHT22;3648;50.614;13.830;2022-11-03T05:39:56;3.80;1.00
7214;DHT22;3648;50.614;13.830;2022-11-03T05:42:31;3.60;1.00
7214;DHT22;3648;50.614;13.830;2022-11-03T05:45:02;3.60;1.00
7214;DHT22;3648;50.614;13.830;2022-11-03T05:47:33;3.50;1.00
7214;DHT22;3648;50.614;13.830;2022-11-03T05:50:13;3.50;1.00
7214;DHT22;3648;50.614;13.830;2022-11-03T05:52:43;3.40;1.00
7214;DHT22;3648;50.614;13.830;2022-11-03T05:55:21;3.30;1.00
7214;DHT22;3648;50.614;13.830;2022-11-03T05:57:50;3.20;1.00
7214;DHT22;3648;50.614;13.830;2022-11-03T06:00:31;3.20;1.00
7214;DHT22;3648;50.614;13.830;2022-11-03T06:02:59;3.20;1.00
7214;DHT22;3648;50.614;13.830;2022-11-03T06:05:27;3.20;1.00
7214;DHT22;3648;50.614;13.830;2022-11-03T06:07:59;3.10;1.00
7214;DHT22;3648;50.614;13.830;2022-11-03T06:10:29;3.20;1.00
7214;DHT22;3648;50.614;13.830;2022-11-03T06:13:00;3.20;1.00
7214;DHT22;3648;50.614;13.830;2022-11-03T06:15:30;3.20;1.00
7214;DHT22;3648;50.614;13.830;2022-11-03T06:17:58;3.30;1.00
7214;DHT22;3648;50.614;13.830;2022-11-03T06:20:25;3.30;1.00
7214;DHT22;3648;50.614;13.830;2022-11-03T06:22:55;3.30;1.00
7214;DHT22;3648;50.614;13.830;2022-11-03T06:25:28;3.40;1.00
7214;DHT22;3648;50.614;13.830;2022-11-03T06:27:59;3.40;1.00
7214;DHT22;3648;50.614;13.830;2022-11-03T06:30:28;3.50;1.00
7214;DHT22;3648;50.614;13.830;2022-11-03T06:32:58;3.60;1.00
7214;DHT22;3648;50.614;13.830;2022-11-03T06:35:26;3.70;1.00
7214;DHT22;3648;50.614;13.830;2022-11-03T06:37:56;3.60;1.00
7214;DHT22;3648;50.614;13.830;2022-11-03T06:40:32;3.70;1.00
7214;DHT22;3648;50.614;13.830;2022-11-03T06:43:09;3.80;1.00
7214;DHT22;3648;50.614;13.830;2022-11-03T06:45:48;3.90;1.00
7214;DHT22;3648;50.614;13.830;2022-11-03T06:48:23;3.90;1.00
7214;DHT22;3648;50.614;13.830;2022-11-03T06:50:51;3.90;1.00
7214;DHT22;3648;50.614;13.830;2022-11-03T06:53:22;3.90;1.00
7214;DHT22;3648;50.614;13.830;2022-11-03T06:55:50;4.00;1.00
7214;DHT22;3648;50.614;13.830;2022-11-03T06:58:26;4.00;1.00
7214;DHT22;3648;50.614;13.830;2022-11-03T07:00:56;4.00;1.00
7214;DHT22;3648;50.614;13.830;2022-11-03T07:03:25;4.10;1.00
7214;DHT22;3648;50.614;13.830;2022-11-03T07:05:56;4.10;1.00
7214;DHT22;3648;50.614;13.830;2022-11-03T07:08:27;4.20;1.00
7214;DHT22;3648;50.614;13.830;2022-11-03T07:11:00;4.20;1.00
7214;DHT22;3648;50.614;13.830;2022-11-03T07:13:30;4.30;1.00
7214;DHT22;3648;50.614;13.830;2022-11-03T07:15:58;4.30;1.00
7214;DHT22;3648;50.614;13.830;2022-11-03T07:18:28;4.10;1.00
7214;DHT22;3648;50.614;13.830;2022-11-03T07:20:56;4.10;1.00
7214;DHT22;3648;50.614;13.830;2022-11-03T07:23:28;4.10;1.00
7214;DHT22;3648;50.614;13.830;2022-11-03T07:25:59;4.20;1.00
7214;DHT22;3648;50.614;13.830;2022-11-03T07:28:30;4.30;1.00
7214;DHT22;3648;50.614;13.830;2022-11-03T07:30:59;4.00;1.00
7214;DHT22;3648;50.614;13.830;2022-11-03T07:33:29;4.10;1.00
7214;DHT22;3648;50.614;13.830;2022-11-03T07:35:57;4.20;1.00
7214;DHT22;3648;50.614;13.830;2022-11-03T07:38:27;4.10;1.00
7214;DHT22;3648;50.614;13.830;2022-11-03T07:40:56;4.20;1.00
7214;DHT22;3648;50.614;13.830;2022-11-03T07:43:27;4.10;1.00
7214;DHT22;3648;50.614;13.830;2022-11-03T07:45:57;4.10;1.00
7214;DHT22;3648;50.614;13.830;2022-11-03T07:48:26;4.10;1.00
7214;DHT22;3648;50.614;13.830;2022-11-03T07:50:55;4.10;1.00
7214;DHT22;3648;50.614;13.830;2022-11-03T07:53:28;4.20;1.00
7214;DHT22;3648;50.614;13.830;2022-11-03T07:55:57;4.20;1.00
7214;DHT22;3648;50.614;13.830;2022-11-03T07:58:28;4.30;1.00
7214;DHT22;3648;50.614;13.830;2022-11-03T08:00:58;4.40;1.00
7214;DHT22;3648;50.614;13.830;2022-11-03T08:03:35;4.40;1.00
7214;DHT22;3648;50.614;13.830;2022-11-03T08:06:05;4.50;1.00
7214;DHT22;3648;50.614;13.830;2022-11-03T08:08:33;4.70;1.00
7214;DHT22;3648;50.614;13.830;2022-11-03T08:11:00;4.70;1.00
7214;DHT22;3648;50.614;13.830;2022-11-03T08:13:27;4.70;1.00
7214;DHT22;3648;50.614;13.830;2022-11-03T08:15:54;4.90;1.00
7214;DHT22;3648;50.614;13.830;2022-11-03T08:18:21;5.00;1.00
7214;DHT22;3648;50.614;13.830;2022-11-03T08:20:48;5.10;1.00
7214;DHT22;3648;50.614;13.830;2022-11-03T08:23:15;5.30;1.00
7214;DHT22;3648;50.614;13.830;2022-11-03T08:25:44;5.40;1.00
7214;DHT22;3648;50.614;13.830;2022-11-03T08:28:11;5.40;1.00
7214;DHT22;3648;50.614;13.830;2022-11-03T08:30:38;5.40;1.00
7214;DHT22;3648;50.614;13.830;2022-11-03T08:33:04;5.40;1.00
7214;DHT22;3648;50.614;13.830;2022-11-03T08:35:31;5.50;1.00
7214;DHT22;3648;50.614;13.830;2022-11-03T08:37:58;5.50;1.00
7214;DHT22;3648;50.614;13.830;2022-11-03T08:40:25;5.50;1.00
7214;DHT22;3648;50.614;13.830;2022-11-03T08:42:54;5.60;1.00
7214;DHT22;3648;50.614;13.830;2022-11-03T08:45:21;5.50;1.00
7214;DHT22;3648;50.614;13.830;2022-11-03T08:47:48;5.50;1.00
7214;DHT22;3648;50.614;13.830;2022-11-03T08:50:15;5.60;1.00
7214;DHT22;3648;50.614;13.830;2022-11-03T08:52:42;5.60;1.00
7214;DHT22;3648;50.614;13.830;2022-11-03T08:55:09;5.70;1.00
7214;DHT22;3648;50.614;13.830;2022-11-03T08:57:36;5.80;1.00
7214;DHT22;3648;50.614;13.830;2022-11-03T09:00:06;5.80;1.00
7214;DHT22;3648;50.614;13.830;2022-11-03T09:02:34;5.80;1.00
7214;DHT22;3648;50.614;13.830;2022-11-03T09:05:01;5.80;1.00
7214;DHT22;3648;50.614;13.830;2022-11-03T09:07:30;5.90;1.00
7214;DHT22;3648;50.614;13.830;2022-11-03T09:09:58;6.00;1.00
7214;DHT22;3648;50.614;13.830;2022-11-03T09:12:25;6.00;1.00
7214;DHT22;3648;50.614;13.830;2022-11-03T09:14:52;6.10;1.00
7214;DHT22;3648;50.614;13.830;2022-11-03T09:17:20;6.20;1.00
7214;DHT22;3648;50.614;13.830;2022-11-03T09:19:47;6.20;1.00
7214;DHT22;3648;50.614;13.830;2022-11-03T09:22:14;6.30;1.00
7214;DHT22;3648;50.614;13.830;2022-11-03T09:24:41;6.30;1.00
7214;DHT22;3648;50.614;13.830;2022-11-03T09:27:09;6.30;1.00
7214;DHT22;3648;50.614;13.830;2022-11-03T09:29:36;6.30;1.00
7214;DHT22;3648;50.614;13.830;2022-11-03T09:32:03;6.30;1.00
7214;DHT22;3648;50.614;13.830;2022-11-03T09:34:32;6.40;1.00
7214;DHT22;3648;50.614;13.830;2022-11-03T09:36:59;6.40;1.00
7214;DHT22;3648;50.614;13.830;2022-11-03T09:39:26;6.40;1.00
7214;DHT22;3648;50.614;13.830;2022-11-03T09:41:54;6.50;1.00
7214;DHT22;3648;50.614;13.830;2022-11-03T09:44:23;6.50;1.00
7214;DHT22;3648;50.614;13.830;2022-11-03T09:46:50;6.60;1.00
7214;DHT22;3648;50.614;13.830;2022-11-03T09:49:19;6.70;1.00
7214;DHT22;3648;50.614;13.830;2022-11-03T09:51:48;6.70;1.00
7214;DHT22;3648;50.614;13.830;2022-11-03T09:54:16;6.80;1.00
7214;DHT22;3648;50.614;13.830;2022-11-03T09:56:43;6.90;1.00
7214;DHT22;3648;50.614;13.830;2022-11-03T09:59:16;7.00;1.00
7214;DHT22;3648;50.614;13.830;2022-11-03T10:01:44;7.00;1.00
7214;DHT22;3648;50.614;13.830;2022-11-03T10:04:13;7.20;1.00
7214;DHT22;3648;50.614;13.830;2022-11-03T10:06:41;7.20;1.00
7214;DHT22;3648;50.614;13.830;2022-11-03T10:09:14;7.40;1.00
7214;DHT22;3648;50.614;13.830;2022-11-03T10:11:43;7.50;1.00
7214;DHT22;3648;50.614;13.830;2022-11-03T10:14:13;7.60;1.00
7214;DHT22;3648;50.614;13.830;2022-11-03T10:16:42;7.70;1.00
7214;DHT22;3648;50.614;13.830;2022-11-03T10:19:12;7.80;1.00
7214;DHT22;3648;50.614;13.830;2022-11-03T10:21:41;7.80;1.00
7214;DHT22;3648;50.614;13.830;2022-11-03T10:24:11;7.90;1.00
7214;DHT22;3648;50.614;13.830;2022-11-03T10:26:43;8.00;1.00
7214;DHT22;3648;50.614;13.830;2022-11-03T10:29:17;8.10;1.00
7214;DHT22;3648;50.614;13.830;2022-11-03T10:31:46;8.20;1.00
7214;DHT22;3648;50.614;13.830;2022-11-03T10:34:42;8.20;1.00
7214;DHT22;3648;50.614;13.830;2022-11-03T10:37:15;8.30;1.00
7214;DHT22;3648;50.614;13.830;2022-11-03T10:39:48;8.30;1.00
7214;DHT22;3648;50.614;13.830;2022-11-03T10:42:20;8.30;1.00
7214;DHT22;3648;50.614;13.830;2022-11-03T10:44:50;8.40;1.00
7214;DHT22;3648;50.614;13.830;2022-11-03T10:47:24;8.40;1.00
7214;DHT22;3648;50.614;13.830;2022-11-03T10:49:51;8.50;1.00
7214;DHT22;3648;50.614;13.830;2022-11-03T10:52:22;8.50;1.00
7214;DHT22;3648;50.614;13.830;2022-11-03T10:54:52;8.60;1.00
7214;DHT22;3648;50.614;13.830;2022-11-03T10:57:20;8.70;1.00
7214;DHT22;3648;50.614;13.830;2022-11-03T10:59:49;8.80;1.00
7214;DHT22;3648;50.614;13.830;2022-11-03T11:02:19;8.90;1.00
7214;DHT22;3648;50.614;13.830;2022-11-03T11:04:47;8.90;1.00
7214;DHT22;3648;50.614;13.830;2022-11-03T11:07:20;9.10;1.00
7214;DHT22;3648;50.614;13.830;2022-11-03T11:09:50;9.20;1.00
7214;DHT22;3648;50.614;13.830;2022-11-03T11:12:21;9.30;1.00
7214;DHT22;3648;50.614;13.830;2022-11-03T11:14:55;9.40;1.00
7214;DHT22;3648;50.614;13.830;2022-11-03T11:17:44;9.50;1.00
7214;DHT22;3648;50.614;13.830;2022-11-03T11:20:33;9.60;1.00
7214;DHT22;3648;50.614;13.830;2022-11-03T11:26:33;9.80;1.00
7214;DHT22;3648;50.614;13.830;2022-11-03T11:41:09;10.00;1.00
7214;DHT22;3648;50.614;13.830;2022-11-03T11:43:37;10.10;1.00
7214;DHT22;3648;50.614;13.830;2022-11-03T11:46:37;10.10;1.00
7214;DHT22;3648;50.614;13.830;2022-11-03T11:49:16;10.20;1.00
7214;DHT22;3648;50.614;13.830;2022-11-03T11:51:43;10.20;1.00
7214;DHT22;3648;50.614;13.830;2022-11-03T11:54:12;10.30;1.00
7214;DHT22;3648;50.614;13.830;2022-11-03T11:56:42;10.40;1.00
7214;DHT22;3648;50.614;13.830;2022-11-03T11:59:17;10.50;1.00
7214;DHT22;3648;50.614;13.830;2022-11-03T12:01:48;10.50;1.00
7214;DHT22;3648;50.614;13.830;2022-11-03T12:04:19;10.60;1.00
7214;DHT22;3648;50.614;13.830;2022-11-03T12:06:46;10.70;1.00
7214;DHT22;3648;50.614;13.830;2022-11-03T12:09:18;10.70;1.00
7214;DHT22;3648;50.614;13.830;2022-11-03T12:11:47;10.70;1.00
7214;DHT22;3648;50.614;13.830;2022-11-03T12:14:24;10.70;1.00
7214;DHT22;3648;50.614;13.830;2022-11-03T12:16:51;10.80;1.00
7214;DHT22;3648;50.614;13.830;2022-11-03T12:22:10;10.90;1.00
7214;DHT22;3648;50.614;13.830;2022-11-03T12:24:50;10.90;1.00
7214;DHT22;3648;50.614;13.830;2022-11-03T12:27:41;10.90;1.00
7214;DHT22;3648;50.614;13.830;2022-11-03T12:30:15;10.90;1.00
7214;DHT22;3648;50.614;13.830;2022-11-03T12:32:43;10.90;1.00
7214;DHT22;3648;50.614;13.830;2022-11-03T12:35:11;10.90;1.00
7214;DHT22;3648;50.614;13.830;2022-11-03T12:37:39;10.90;1.00
7214;DHT22;3648;50.614;13.830;2022-11-03T12:40:08;10.90;1.00
7214;DHT22;3648;50.614;13.830;2022-11-03T12:42:35;10.90;1.00
7214;DHT22;3648;50.614;13.830;2022-11-03T12:45:02;10.90;1.00
7214;DHT22;3648;50.614;13.830;2022-11-03T12:47:30;10.90;1.00
7214;DHT22;3648;50.614;13.830;2022-11-03T12:49:57;10.90;1.00
7214;DHT22;3648;50.614;13.830;2022-11-03T12:52:24;10.90;1.00
7214;DHT22;3648;50.614;13.830;2022-11-03T12:54:51;10.90;1.00
7214;DHT22;3648;50.614;13.830;2022-11-03T12:57:19;10.90;1.00
7214;DHT22;3648;50.614;13.830;2022-11-03T12:59:45;10.90;1.00
7214;DHT22;3648;50.614;13.830;2022-11-03T13:02:12;10.90;1.00
7214;DHT22;3648;50.614;13.830;2022-11-03T13:04:41;11.00;1.00
7214;DHT22;3648;50.614;13.830;2022-11-03T13:07:07;11.00;1.00
7214;DHT22;3648;50.614;13.830;2022-11-03T13:09:34;11.00;1.00
7214;DHT22;3648;50.614;13.830;2022-11-03T13:12:02;11.10;1.00
7214;DHT22;3648;50.614;13.830;2022-11-03T13:14:47;11.10;1.00
7214;DHT22;3648;50.614;13.830;2022-11-03T13:17:14;11.10;1.00
7214;DHT22;3648;50.614;13.830;2022-11-03T13:19:42;11.10;1.00
7214;DHT22;3648;50.614;13.830;2022-11-03T13:22:09;11.10;1.00
7214;DHT22;3648;50.614;13.830;2022-11-03T13:24:36;11.20;1.00
7214;DHT22;3648;50.614;13.830;2022-11-03T13:27:03;11.20;1.00
7214;DHT22;3648;50.614;13.830;2022-11-03T13:29:30;11.20;1.00
7214;DHT22;3648;50.614;13.830;2022-11-03T13:31:57;11.20;1.00
7214;DHT22;3648;50.614;13.830;2022-11-03T13:34:24;11.20;1.00
7214;DHT22;3648;50.614;13.830;2022-11-03T13:36:53;11.30;1.00
7214;DHT22;3648;50.614;13.830;2022-11-03T13:39:20;11.20;1.00
7214;DHT22;3648;50.614;13.830;2022-11-03T13:41:47;11.20;1.00
7214;DHT22;3648;50.614;13.830;2022-11-03T13:44:14;11.20;1.00
7214;DHT22;3648;50.614;13.830;2022-11-03T13:46:41;11.20;1.00
7214;DHT22;3648;50.614;13.830;2022-11-03T13:49:08;11.10;1.00
7214;DHT22;3648;50.614;13.830;2022-11-03T13:51:35;11.10;1.00
7214;DHT22;3648;50.614;13.830;2022-11-03T13:54:04;11.10;1.00
7214;DHT22;3648;50.614;13.830;2022-11-03T13:56:31;11.10;1.00
7214;DHT22;3648;50.614;13.830;2022-11-03T13:58:58;11.10;1.00
7214;DHT22;3648;50.614;13.830;2022-11-03T14:01:25;11.10;1.00
7214;DHT22;3648;50.614;13.830;2022-11-03T14:03:52;11.10;1.00
7214;DHT22;3648;50.614;13.830;2022-11-03T14:06:20;11.10;1.00
7214;DHT22;3648;50.614;13.830;2022-11-03T14:08:47;11.10;1.00
7214;DHT22;3648;50.614;13.830;2022-11-03T14:11:15;11.10;1.00
7214;DHT22;3648;50.614;13.830;2022-11-03T14:14:00;11.20;1.00
7214;DHT22;3648;50.614;13.830;2022-11-03T14:16:27;11.20;1.00
7214;DHT22;3648;50.614;13.830;2022-11-03T14:18:54;11.20;1.00
7214;DHT22;3648;50.614;13.830;2022-11-03T14:21:21;11.20;1.00
7214;DHT22;3648;50.614;13.830;2022-11-03T14:23:48;11.20;1.00
7214;DHT22;3648;50.614;13.830;2022-11-03T14:26:17;11.30;1.00
7214;DHT22;3648;50.614;13.830;2022-11-03T14:28:44;11.30;1.00
7214;DHT22;3648;50.614;13.830;2022-11-03T14:31:11;11.30;1.00
7214;DHT22;3648;50.614;13.830;2022-11-03T14:33:38;11.30;1.00
7214;DHT22;3648;50.614;13.830;2022-11-03T14:36:05;11.30;1.00
7214;DHT22;3648;50.614;13.830;2022-11-03T14:38:32;11.30;1.00
7214;DHT22;3648;50.614;13.830;2022-11-03T14:40:59;11.30;1.00
7214;DHT22;3648;50.614;13.830;2022-11-03T14:43:45;11.20;1.00
7214;DHT22;3648;50.614;13.830;2022-11-03T14:46:12;11.20;1.00
7214;DHT22;3648;50.614;13.830;2022-11-03T14:48:39;11.20;1.00
7214;DHT22;3648;50.614;13.830;2022-11-03T14:51:05;11.20;1.00
7214;DHT22;3648;50.614;13.830;2022-11-03T14:53:32;11.20;1.00
7214;DHT22;3648;50.614;13.830;2022-11-03T14:55:59;11.10;1.00
7214;DHT22;3648;50.614;13.830;2022-11-03T14:58:26;11.10;1.00
7214;DHT22;3648;50.614;13.830;2022-11-03T15:00:54;11.00;1.00
7214;DHT22;3648;50.614;13.830;2022-11-03T15:03:22;11.00;1.00
7214;DHT22;3648;50.614;13.830;2022-11-03T15:05:49;10.90;1.00
7214;DHT22;3648;50.614;13.830;2022-11-03T15:08:19;10.80;1.00
7214;DHT22;3648;50.614;13.830;2022-11-03T15:10:46;10.80;1.00
7214;DHT22;3648;50.614;13.830;2022-11-03T15:13:13;10.80;1.00
7214;DHT22;3648;50.614;13.830;2022-11-03T15:15:40;10.60;1.00
7214;DHT22;3648;50.614;13.830;2022-11-03T15:18:09;10.60;1.00
7214;DHT22;3648;50.614;13.830;2022-11-03T15:20:36;10.60;1.00
7214;DHT22;3648;50.614;13.830;2022-11-03T15:23:03;10.50;1.00
7214;DHT22;3648;50.614;13.830;2022-11-03T15:25:31;10.50;1.00
7214;DHT22;3648;50.614;13.830;2022-11-03T15:27:58;10.40;1.00
7214;DHT22;3648;50.614;13.830;2022-11-03T15:30:25;10.40;1.00
7214;DHT22;3648;50.614;13.830;2022-11-03T15:32:52;10.30;1.00
7214;DHT22;3648;50.614;13.830;2022-11-03T15:35:22;10.20;1.00
7214;DHT22;3648;50.614;13.830;2022-11-03T15:37:49;10.20;1.00
7214;DHT22;3648;50.614;13.830;2022-11-03T15:40:16;10.10;1.00
7214;DHT22;3648;50.614;13.830;2022-11-03T15:42:43;10.00;1.00
7214;DHT22;3648;50.614;13.830;2022-11-03T15:45:12;10.00;1.00
7214;DHT22;3648;50.614;13.830;2022-11-03T15:47:39;9.90;1.00
7214;DHT22;3648;50.614;13.830;2022-11-03T15:50:07;9.80;1.00
7214;DHT22;3648;50.614;13.830;2022-11-03T15:52:36;9.80;1.00
7214;DHT22;3648;50.614;13.830;2022-11-03T15:55:04;9.70;1.00
7214;DHT22;3648;50.614;13.830;2022-11-03T15:57:31;9.60;1.00
7214;DHT22;3648;50.614;13.830;2022-11-03T15:59:58;9.60;1.00
7214;DHT22;3648;50.614;13.830;2022-11-03T16:02:25;9.50;1.00
7214;DHT22;3648;50.614;13.830;2022-11-03T16:04:52;9.40;1.00
7214;DHT22;3648;50.614;13.830;2022-11-03T16:07:20;9.40;1.00
7214;DHT22;3648;50.614;13.830;2022-11-03T16:09:49;9.30;1.00
7214;DHT22;3648;50.614;13.830;2022-11-03T16:12:16;9.30;1.00
7214;DHT22;3648;50.614;13.830;2022-11-03T16:14:43;9.30;1.00
7214;DHT22;3648;50.614;13.830;2022-11-03T16:17:10;9.20;1.00
7214;DHT22;3648;50.614;13.830;2022-11-03T16:19:37;9.20;1.00
7214;DHT22;3648;50.614;13.830;2022-11-03T16:22:04;9.10;1.00
7214;DHT22;3648;50.614;13.830;2022-11-03T16:24:31;9.10;1.00
7214;DHT22;3648;50.614;13.830;2022-11-03T16:26:59;9.10;1.00
7214;DHT22;3648;50.614;13.830;2022-11-03T16:29:26;9.00;1.00
7214;DHT22;3648;50.614;13.830;2022-11-03T16:31:53;9.00;1.00
7214;DHT22;3648;50.614;13.830;2022-11-03T16:34:20;9.00;1.00
7214;DHT22;3648;50.614;13.830;2022-11-03T16:36:47;9.00;1.00
7214;DHT22;3648;50.614;13.830;2022-11-03T16:39:14;8.90;1.00
7214;DHT22;3648;50.614;13.830;2022-11-03T16:41:41;8.90;1.00
7214;DHT22;3648;50.614;13.830;2022-11-03T16:44:09;8.90;1.00
7214;DHT22;3648;50.614;13.830;2022-11-03T16:46:36;8.90;1.00
7214;DHT22;3648;50.614;13.830;2022-11-03T16:49:03;8.90;1.00